createdAt,value
2019-06-26T00:02:24.056Z,94.20
2019-06-26T00:04:53.036Z,94.50
2019-06-26T00:07:22.222Z,94.60
2019-06-26T00:09:51.300Z,94.80
2019-06-26T00:12:20.321Z,95.00
2019-06-26T00:14:49.469Z,95.20
2019-06-26T00:17:18.698Z,95.40
2019-06-26T00:19:47.823Z,95.70
2019-06-26T00:22:16.844Z,95.90
2019-06-26T00:24:45.961Z,96.10
2019-06-26T00:27:15.003Z,96.20
2019-06-26T00:29:43.982Z,96.50
2019-06-26T00:32:12.937Z,96.60
2019-06-26T00:34:42.084Z,96.60
2019-06-26T00:37:11.086Z,96.60
2019-06-26T00:39:40.190Z,96.60
2019-06-26T00:42:09.153Z,96.60
2019-06-26T00:44:38.300Z,96.60
2019-06-26T00:47:07.322Z,96.50
2019-06-26T00:49:36.317Z,96.50
2019-06-26T00:52:05.413Z,96.50
2019-06-26T00:54:34.798Z,96.60
2019-06-26T00:57:04.017Z,96.70
2019-06-26T00:59:32.964Z,97.10
2019-06-26T01:02:02.112Z,97.20
2019-06-26T01:04:32.705Z,97.10
2019-06-26T01:07:01.961Z,97.10
2019-06-26T01:09:31.095Z,97.00
2019-06-26T01:12:00.264Z,97.00
2019-06-26T01:14:29.265Z,96.70
2019-06-26T01:16:58.308Z,96.90
2019-06-26T01:19:27.459Z,97.10
2019-06-26T01:21:56.565Z,97.30
2019-06-26T01:24:25.545Z,97.60
2019-06-26T01:26:54.830Z,98.00
2019-06-26T01:29:23.852Z,98.30
2019-06-26T01:31:53.089Z,98.30
2019-06-26T01:34:22.208Z,98.20
2019-06-26T01:36:51.206Z,98.10
2019-06-26T01:39:20.590Z,98.10
2019-06-26T01:41:49.932Z,98.00
2019-06-26T01:44:19.006Z,98.20
2019-06-26T01:46:47.979Z,98.00
2019-06-26T01:49:16.995Z,98.30
2019-06-26T01:51:46.270Z,98.00
2019-06-26T01:54:15.213Z,98.00
2019-06-26T01:56:44.201Z,98.10
2019-06-26T01:59:13.141Z,98.10
2019-06-26T02:01:42.475Z,98.20
2019-06-26T02:04:11.430Z,98.20
2019-06-26T02:06:40.480Z,98.30
2019-06-26T02:09:09.489Z,98.40
2019-06-26T02:11:38.481Z,98.40
2019-06-26T02:14:07.710Z,98.40
2019-06-26T02:16:36.969Z,98.80
2019-06-26T02:19:07.634Z,98.50
2019-06-26T02:21:36.758Z,98.30
2019-06-26T02:24:05.925Z,98.30
2019-06-26T02:26:35.205Z,98.40
2019-06-26T02:29:04.561Z,98.40
2019-06-26T02:31:33.527Z,98.30
2019-06-26T02:34:02.931Z,98.10
2019-06-26T02:36:32.130Z,98.30
2019-06-26T02:39:01.152Z,98.40
2019-06-26T02:41:30.300Z,98.30
2019-06-26T02:43:59.540Z,98.20
2019-06-26T02:46:28.494Z,98.50
2019-06-26T02:48:57.609Z,98.70
2019-06-26T02:51:26.743Z,98.80
2019-06-26T02:53:55.784Z,99.00
2019-06-26T02:56:24.747Z,99.20
2019-06-26T02:58:54.173Z,98.70
2019-06-26T03:01:23.434Z,98.90
2019-06-26T03:03:52.494Z,99.10
2019-06-26T03:06:21.553Z,99.20
2019-06-26T03:08:50.637Z,99.00
2019-06-26T03:11:20.491Z,99.20
2019-06-26T03:13:49.611Z,99.20
2019-06-26T03:16:18.894Z,99.40
2019-06-26T03:18:47.935Z,99.60
2019-06-26T03:21:17.143Z,99.70
2019-06-26T03:23:46.328Z,99.80
2019-06-26T03:26:15.334Z,99.60
2019-06-26T03:28:44.389Z,99.20
2019-06-26T03:31:13.339Z,99.80
2019-06-26T03:33:42.513Z,99.60
2019-06-26T03:36:11.548Z,99.80
2019-06-26T03:38:40.695Z,99.90
2019-06-26T03:41:09.676Z,99.90
2019-06-26T03:43:39.229Z,99.90
2019-06-26T03:46:08.738Z,99.90
2019-06-26T03:48:37.856Z,99.90
2019-06-26T03:51:07.062Z,99.90
2019-06-26T03:53:36.068Z,99.90
2019-06-26T03:56:05.341Z,99.90
2019-06-26T03:58:34.569Z,99.90
2019-06-26T04:01:03.699Z,99.90
2019-06-26T04:03:32.641Z,99.90
2019-06-26T04:06:01.824Z,99.90
2019-06-26T04:08:30.782Z,99.90
2019-06-26T04:10:59.825Z,99.90
2019-06-26T04:13:28.848Z,99.90
2019-06-26T04:15:58.052Z,99.90
2019-06-26T04:18:27.012Z,99.70
2019-06-26T04:20:56.153Z,99.40
2019-06-26T04:23:25.537Z,99.20
2019-06-26T04:25:54.653Z,98.80
2019-06-26T04:28:23.595Z,98.80
2019-06-26T04:30:52.640Z,98.80
2019-06-26T04:33:21.884Z,98.90
2019-06-26T04:35:50.907Z,99.10
2019-06-26T04:38:19.896Z,99.10
2019-06-26T04:40:48.939Z,99.20
2019-06-26T04:43:18.338Z,99.30
2019-06-26T04:45:57.704Z,99.40
2019-06-26T04:48:18.507Z,99.50
2019-06-26T04:50:47.549Z,99.50
2019-06-26T04:53:16.726Z,99.50
2019-06-26T04:55:45.876Z,99.50
2019-06-26T04:58:14.913Z,99.50
2019-06-26T05:00:44.008Z,99.50
2019-06-26T05:03:12.988Z,99.60
2019-06-26T05:05:44.421Z,99.60
2019-06-26T05:08:13.296Z,99.50
2019-06-26T05:10:42.942Z,99.50
2019-06-26T05:13:12.277Z,99.50
2019-06-26T05:15:41.443Z,99.40
2019-06-26T05:18:10.581Z,99.40
2019-06-26T05:20:39.766Z,99.40
2019-06-26T05:23:08.819Z,99.40
2019-06-26T05:25:38.079Z,99.40
2019-06-26T05:28:08.456Z,99.20
2019-06-26T05:30:37.614Z,99.30
2019-06-26T05:33:06.853Z,99.20
2019-06-26T05:35:35.857Z,99.20
2019-06-26T05:38:05.186Z,99.10
2019-06-26T05:40:34.368Z,99.10
2019-06-26T05:43:03.432Z,99.00
2019-06-26T05:45:32.711Z,98.80
2019-06-26T05:48:01.693Z,98.50
2019-06-26T05:50:30.666Z,98.20
2019-06-26T05:52:59.755Z,97.80
2019-06-26T05:55:28.866Z,97.20
2019-06-26T05:57:58.202Z,97.00
2019-06-26T06:00:27.205Z,96.90
2019-06-26T06:02:56.621Z,96.70
2019-06-26T06:05:25.948Z,96.50
2019-06-26T06:07:55.207Z,96.20
2019-06-26T06:10:24.344Z,96.20
2019-06-26T06:12:53.496Z,96.20
2019-06-26T06:15:22.614Z,96.10
2019-06-26T06:17:51.778Z,96.20
2019-06-26T06:20:35.862Z,96.20
2019-06-26T06:23:05.294Z,96.30
2019-06-26T06:25:34.774Z,96.20
2019-06-26T06:28:04.957Z,96.30
2019-06-26T06:30:34.189Z,96.40
2019-06-26T06:33:04.177Z,96.30
2019-06-26T06:35:33.721Z,96.30
2019-06-26T06:38:03.417Z,96.30
2019-06-26T06:40:32.526Z,96.30
2019-06-26T06:43:01.530Z,96.20
2019-06-26T06:45:30.948Z,96.10
2019-06-26T06:48:00.203Z,96.20
2019-06-26T06:50:29.526Z,96.00
2019-06-26T06:52:58.735Z,95.60
2019-06-26T06:55:27.897Z,95.70
2019-06-26T06:57:57.101Z,95.70
2019-06-26T07:00:26.323Z,95.60
2019-06-26T07:02:55.512Z,95.70
2019-06-26T07:05:24.524Z,95.70
2019-06-26T07:07:53.637Z,95.30
2019-06-26T07:10:22.685Z,95.20
2019-06-26T07:12:51.731Z,95.20
2019-06-26T07:15:23.049Z,95.30
2019-06-26T07:17:52.545Z,95.50
2019-06-26T07:20:21.801Z,95.50
2019-06-26T07:22:51.148Z,95.30
2019-06-26T07:25:20.448Z,95.40
2019-06-26T07:27:49.403Z,95.20
2019-06-26T07:30:18.840Z,95.00
2019-06-26T07:32:47.849Z,94.90
2019-06-26T07:35:17.010Z,94.70
2019-06-26T07:37:46.000Z,94.90
2019-06-26T07:40:15.456Z,94.90
2019-06-26T07:42:44.690Z,94.90
2019-06-26T07:45:14.067Z,94.70
2019-06-26T07:47:44.333Z,94.20
2019-06-26T07:50:14.743Z,93.80
2019-06-26T07:52:45.418Z,93.70
2019-06-26T07:55:14.446Z,93.50
2019-06-26T07:57:43.642Z,93.00
2019-06-26T08:00:12.951Z,92.90
2019-06-26T08:02:42.217Z,93.00
2019-06-26T08:05:14.730Z,92.90
2019-06-26T08:07:43.774Z,92.80
2019-06-26T08:10:13.872Z,92.00
2019-06-26T08:12:42.924Z,91.60
2019-06-26T08:15:12.323Z,91.90
2019-06-26T08:17:41.536Z,92.30
2019-06-26T08:20:11.511Z,92.60
2019-06-26T08:22:40.785Z,92.70
2019-06-26T08:25:10.339Z,92.30
2019-06-26T08:27:39.888Z,92.20
2019-06-26T08:30:09.667Z,92.10
2019-06-26T08:32:38.880Z,92.10
2019-06-26T08:35:08.416Z,91.80
2019-06-26T08:37:37.861Z,91.40
2019-06-26T08:40:08.005Z,91.30
2019-06-26T08:42:40.084Z,91.20
2019-06-26T08:45:09.949Z,91.00
2019-06-26T08:47:39.223Z,90.90
2019-06-26T08:50:09.318Z,90.80
2019-06-26T08:52:38.650Z,90.40
2019-06-26T08:55:08.302Z,90.20
2019-06-26T08:57:37.561Z,90.30
2019-06-26T09:00:09.133Z,90.60
2019-06-26T09:02:38.393Z,90.30
2019-06-26T09:05:08.033Z,90.50
2019-06-26T09:07:37.042Z,90.40
2019-06-26T09:10:07.468Z,89.70
2019-06-26T09:12:36.439Z,88.60
2019-06-26T09:15:07.179Z,86.30
2019-06-26T09:17:38.027Z,85.90
2019-06-26T09:20:08.619Z,87.10
2019-06-26T09:22:37.802Z,86.70
2019-06-26T09:25:20.963Z,84.20
2019-06-26T09:27:38.290Z,85.80
2019-06-26T09:30:08.340Z,85.80
2019-06-26T09:32:37.381Z,85.00
2019-06-26T09:35:07.009Z,84.30
2019-06-26T09:37:36.258Z,83.60
2019-06-26T09:40:07.703Z,83.60
2019-06-26T09:42:36.759Z,83.90
2019-06-26T09:45:10.335Z,84.80
2019-06-26T09:47:39.543Z,84.50
2019-06-26T09:50:09.365Z,85.10
2019-06-26T09:52:38.417Z,85.50
2019-06-26T09:55:08.010Z,86.10
2019-06-26T09:57:37.119Z,86.00
2019-06-26T10:00:09.818Z,84.90
2019-06-26T10:02:38.761Z,85.00
2019-06-26T10:05:08.342Z,84.10
2019-06-26T10:07:37.667Z,85.90
2019-06-26T10:10:07.789Z,86.30
2019-06-26T10:12:36.834Z,85.40
2019-06-26T10:15:06.857Z,85.70
2019-06-26T10:17:36.094Z,86.00
2019-06-26T10:20:07.191Z,85.40
2019-06-26T10:22:36.221Z,86.60
2019-06-26T10:25:05.865Z,85.50
2019-06-26T10:27:35.004Z,84.30
2019-06-26T10:30:05.589Z,85.30
2019-06-26T10:32:34.670Z,86.60
2019-06-26T10:35:05.369Z,86.40
2019-06-26T10:37:34.650Z,87.20
2019-06-26T10:40:05.215Z,87.50
2019-06-26T10:42:34.270Z,87.30
2019-06-26T10:45:05.242Z,86.40
2019-06-26T10:47:34.379Z,86.60
2019-06-26T10:50:04.850Z,86.00
2019-06-26T10:52:34.367Z,83.40
2019-06-26T10:55:05.534Z,81.80
2019-06-26T10:57:34.678Z,84.30
2019-06-26T11:00:06.932Z,84.50
2019-06-26T11:02:36.086Z,84.60
2019-06-26T11:05:07.611Z,84.30
2019-06-26T11:07:36.777Z,84.50
2019-06-26T11:10:08.121Z,83.60
2019-06-26T11:12:37.268Z,82.20
2019-06-26T11:15:10.053Z,80.40
2019-06-26T11:17:39.147Z,83.40
2019-06-26T11:20:10.393Z,84.50
2019-06-26T11:22:39.740Z,84.90
2019-06-26T11:25:09.441Z,85.00
2019-06-26T11:27:38.656Z,82.90
2019-06-26T11:30:11.854Z,82.10
2019-06-26T11:32:40.952Z,75.30
2019-06-26T11:35:10.447Z,75.30
2019-06-26T11:37:39.434Z,78.00
2019-06-26T11:40:09.241Z,78.90
2019-06-26T11:42:38.321Z,82.60
2019-06-26T11:45:09.408Z,83.90
2019-06-26T11:47:38.509Z,85.50
2019-06-26T11:50:09.158Z,85.70
2019-06-26T11:52:38.669Z,84.30
2019-06-26T11:55:08.970Z,83.20
2019-06-26T11:57:38.201Z,83.10
2019-06-26T12:00:10.203Z,82.50
2019-06-26T12:02:39.237Z,81.70
2019-06-26T12:05:08.694Z,82.10
2019-06-26T12:07:38.413Z,83.10
2019-06-26T12:10:09.262Z,82.70
2019-06-26T12:12:38.646Z,82.70
2019-06-26T12:15:08.530Z,81.10
2019-06-26T12:17:37.496Z,80.40
2019-06-26T12:20:17.859Z,77.50
2019-06-26T12:22:38.320Z,77.10
2019-06-26T12:25:07.927Z,74.00
2019-06-26T12:27:36.955Z,76.30
2019-06-26T12:30:07.200Z,75.20
2019-06-26T12:32:42.242Z,77.30
2019-06-26T12:35:08.628Z,75.10
2019-06-26T12:37:38.386Z,75.50
2019-06-26T12:40:08.162Z,75.70
2019-06-26T12:42:37.358Z,75.60
2019-06-26T12:45:07.518Z,74.30
2019-06-26T12:47:36.809Z,74.50
2019-06-26T12:50:07.905Z,74.20
2019-06-26T12:52:36.860Z,72.80
2019-06-26T12:55:07.002Z,72.60
2019-06-26T12:57:36.245Z,71.70
2019-06-26T13:00:11.994Z,69.60
2019-06-26T13:02:41.093Z,67.00
2019-06-26T13:05:10.426Z,66.50
2019-06-26T13:07:39.729Z,66.00
2019-06-26T13:10:09.921Z,64.90
2019-06-26T13:12:38.886Z,65.10
2019-06-26T13:15:10.027Z,64.50
2019-06-26T13:17:39.128Z,65.10
2019-06-26T13:20:10.356Z,66.30
2019-06-26T13:22:39.674Z,67.50
2019-06-26T13:25:10.157Z,67.40
2019-06-26T13:27:39.289Z,66.90
2019-06-26T13:30:08.802Z,67.60
2019-06-26T13:32:37.869Z,67.30
2019-06-26T13:35:07.649Z,67.00
2019-06-26T13:37:36.998Z,66.60
2019-06-26T13:40:07.107Z,64.60
2019-06-26T13:42:36.182Z,64.20
2019-06-26T13:45:07.196Z,65.20
2019-06-26T13:47:36.375Z,65.20
2019-06-26T13:50:11.855Z,65.70
2019-06-26T13:52:40.915Z,65.30
2019-06-26T13:55:10.291Z,65.00
2019-06-26T13:57:39.593Z,63.60
2019-06-26T14:00:09.353Z,63.30
2019-06-26T14:02:38.680Z,62.60
2019-06-26T14:05:09.819Z,62.80
2019-06-26T14:07:38.960Z,62.90
2019-06-26T14:10:09.110Z,62.70
2019-06-26T14:12:38.385Z,60.10
2019-06-26T14:15:08.325Z,59.20
2019-06-26T14:17:37.536Z,58.90
2019-06-26T14:20:08.517Z,58.40
2019-06-26T14:22:37.628Z,58.20
2019-06-26T14:25:08.036Z,57.00
2019-06-26T14:27:37.169Z,57.10
2019-06-26T14:30:07.368Z,56.70
2019-06-26T14:32:36.628Z,56.20
2019-06-26T14:35:06.325Z,56.60
2019-06-26T14:37:35.619Z,56.50
2019-06-26T14:40:07.456Z,56.30
2019-06-26T14:42:36.580Z,55.40
2019-06-26T14:45:10.453Z,55.80
2019-06-26T14:47:39.537Z,56.60
2019-06-26T14:50:09.060Z,57.20
2019-06-26T14:52:38.198Z,56.20
2019-06-26T14:55:08.001Z,55.30
2019-06-26T14:57:37.018Z,55.90
2019-06-26T15:00:07.786Z,56.70
2019-06-26T15:02:36.845Z,56.10
2019-06-26T15:05:08.094Z,55.30
2019-06-26T15:07:37.223Z,53.50
2019-06-26T15:10:10.030Z,53.10
2019-06-26T15:12:39.070Z,53.80
2019-06-26T15:15:08.576Z,54.50
2019-06-26T15:17:37.622Z,52.90
2019-06-26T15:20:08.357Z,52.60
2019-06-26T15:22:37.395Z,52.40
2019-06-26T15:25:07.701Z,50.70
2019-06-26T15:27:36.860Z,49.20
2019-06-26T15:30:07.712Z,48.60
2019-06-26T15:32:36.809Z,48.30
2019-06-26T15:35:08.235Z,46.90
2019-06-26T15:37:37.352Z,47.50
2019-06-26T15:40:07.403Z,47.30
2019-06-26T15:42:36.560Z,47.20
2019-06-26T15:45:07.497Z,47.00
2019-06-26T15:47:36.708Z,46.80
2019-06-26T15:50:10.503Z,44.80
2019-06-26T15:52:38.044Z,45.60
2019-06-26T15:55:07.948Z,45.30
2019-06-26T15:57:38.244Z,45.70
2019-06-26T16:00:07.934Z,44.40
2019-06-26T16:02:36.892Z,43.70
2019-06-26T16:05:07.447Z,44.70
2019-06-26T16:07:36.671Z,44.30
2019-06-26T16:10:07.305Z,44.70
2019-06-26T16:12:36.412Z,43.90
2019-06-26T16:15:06.537Z,43.70
2019-06-26T16:17:46.345Z,42.90
2019-06-26T16:20:15.774Z,43.10
2019-06-26T16:22:44.819Z,43.40
2019-06-26T16:25:14.349Z,43.40
2019-06-26T16:27:43.830Z,43.80
2019-06-26T16:30:13.539Z,42.80
2019-06-26T16:32:42.552Z,43.30
2019-06-26T16:35:12.515Z,43.90
2019-06-26T16:37:41.574Z,45.00
2019-06-26T16:40:11.101Z,45.30
2019-06-26T16:42:40.361Z,45.00
2019-06-26T16:45:09.823Z,46.30
2019-06-26T16:47:38.787Z,46.20
2019-06-26T16:50:09.083Z,46.10
2019-06-26T16:52:48.512Z,46.70
2019-06-26T16:55:09.538Z,46.90
2019-06-26T16:57:38.505Z,46.90
2019-06-26T17:00:10.242Z,47.20
2019-06-26T17:02:39.681Z,46.40
2019-06-26T17:05:09.017Z,46.20
2019-06-26T17:07:38.051Z,46.50
2019-06-26T17:10:08.728Z,46.50
2019-06-26T17:12:38.219Z,46.70
2019-06-26T17:15:09.073Z,45.90
2019-06-26T17:17:38.465Z,45.20
2019-06-26T17:20:08.415Z,45.10
2019-06-26T17:22:37.809Z,44.70
2019-06-26T17:25:07.855Z,44.70
2019-06-26T17:27:37.040Z,45.10
2019-06-26T17:30:08.003Z,44.30
2019-06-26T17:32:37.070Z,45.20
2019-06-26T17:35:07.396Z,44.70
2019-06-26T17:37:36.558Z,45.00
2019-06-26T17:40:06.814Z,45.60
2019-06-26T17:42:35.862Z,44.30
2019-06-26T17:45:06.454Z,44.50
2019-06-26T17:47:35.581Z,45.80
2019-06-26T17:50:05.866Z,45.20
2019-06-26T17:52:38.246Z,45.80
2019-06-26T17:55:09.596Z,45.30
2019-06-26T17:57:38.731Z,45.20
2019-06-26T18:00:09.530Z,46.90
2019-06-26T18:02:38.609Z,46.40
2019-06-26T18:05:08.288Z,46.20
2019-06-26T18:07:37.812Z,46.40
2019-06-26T18:10:07.427Z,46.80
2019-06-26T18:12:36.950Z,46.70
2019-06-26T18:15:09.200Z,47.10
2019-06-26T18:17:38.322Z,47.30
2019-06-26T18:20:08.161Z,46.80
2019-06-26T18:22:37.795Z,47.30
2019-06-26T18:25:07.261Z,47.70
2019-06-26T18:27:36.336Z,48.00
2019-06-26T18:30:09.824Z,49.10
2019-06-26T18:32:38.859Z,49.70
2019-06-26T18:35:08.180Z,50.10
2019-06-26T18:37:37.505Z,50.50
2019-06-26T18:40:07.300Z,50.90
2019-06-26T18:42:36.824Z,51.30
2019-06-26T18:45:07.265Z,51.00
2019-06-26T18:47:36.305Z,51.10
2019-06-26T18:50:08.653Z,51.50
2019-06-26T18:52:37.618Z,52.20
2019-06-26T18:55:09.460Z,52.30
2019-06-26T18:57:39.766Z,52.40
2019-06-26T19:00:09.902Z,52.90
2019-06-26T19:02:39.150Z,54.30
2019-06-26T19:05:09.227Z,55.00
2019-06-26T19:07:38.350Z,54.70
2019-06-26T19:10:08.278Z,55.10
2019-06-26T19:12:37.568Z,56.60
2019-06-26T19:15:07.498Z,58.40
2019-06-26T19:17:36.758Z,59.00
2019-06-26T19:20:08.201Z,63.70
2019-06-26T19:22:37.239Z,66.20
2019-06-26T19:25:07.253Z,68.20
2019-06-26T19:27:36.340Z,70.20
2019-06-26T19:30:14.790Z,71.90
2019-06-26T19:32:42.435Z,72.20
2019-06-26T19:35:20.275Z,73.30
2019-06-26T19:37:43.208Z,73.10
2019-06-26T19:40:12.698Z,72.40
2019-06-26T19:42:41.726Z,74.00
2019-06-26T19:45:11.710Z,74.90
2019-06-26T19:47:40.839Z,75.30
2019-06-26T19:50:10.233Z,75.80
2019-06-26T19:52:39.380Z,76.90
2019-06-26T19:55:08.907Z,77.50
2019-06-26T19:57:37.993Z,77.70
2019-06-26T20:00:11.056Z,78.00
2019-06-26T20:02:40.166Z,78.20
2019-06-26T20:05:10.569Z,78.00
2019-06-26T20:07:39.555Z,78.50
2019-06-26T20:10:09.402Z,78.30
2019-06-26T20:12:38.564Z,78.20
2019-06-26T20:15:08.894Z,78.10
2019-06-26T20:17:37.903Z,78.50
2019-06-26T20:20:07.644Z,78.70
2019-06-26T20:22:36.785Z,78.90
2019-06-26T20:25:09.492Z,79.90
2019-06-26T20:27:38.928Z,79.40
2019-06-26T20:30:10.268Z,79.00
2019-06-26T20:32:39.433Z,78.90
2019-06-26T20:35:09.526Z,78.90
2019-06-26T20:37:38.654Z,78.60
2019-06-26T20:40:08.539Z,79.10
2019-06-26T20:42:37.587Z,78.00
2019-06-26T20:45:07.643Z,78.60
2019-06-26T20:47:36.776Z,78.60
2019-06-26T20:50:09.369Z,79.20
2019-06-26T20:52:38.701Z,79.40
2019-06-26T20:55:07.874Z,79.80
2019-06-26T20:57:37.133Z,80.40
2019-06-26T21:00:08.863Z,80.40
2019-06-26T21:02:38.193Z,81.70
2019-06-26T21:05:07.597Z,80.90
2019-06-26T21:07:37.241Z,81.70
2019-06-26T21:10:06.685Z,81.00
2019-06-26T21:12:36.007Z,80.60
2019-06-26T21:15:07.837Z,81.30
2019-06-26T21:17:37.142Z,81.00
2019-06-26T21:20:06.628Z,81.00
2019-06-26T21:22:36.118Z,81.00
2019-06-26T21:25:18.514Z,80.40
2019-06-26T21:27:40.634Z,80.70
2019-06-26T21:30:10.244Z,81.00
2019-06-26T21:32:39.310Z,81.80
2019-06-26T21:35:08.350Z,82.00
2019-06-26T21:37:37.372Z,83.50
2019-06-26T21:40:06.885Z,87.30
2019-06-26T21:42:35.981Z,89.10
2019-06-26T21:45:06.123Z,89.40
2019-06-26T21:47:35.341Z,90.10
2019-06-26T21:50:05.904Z,90.50
2019-06-26T21:52:35.242Z,90.50
2019-06-26T21:55:06.556Z,90.50
2019-06-26T21:57:35.738Z,90.50
2019-06-26T22:00:10.734Z,90.60
2019-06-26T22:02:40.177Z,90.60
2019-06-26T22:05:09.731Z,90.80
2019-06-26T22:07:39.211Z,90.90
2019-06-26T22:10:08.903Z,91.00
2019-06-26T22:12:38.110Z,91.00
2019-06-26T22:15:07.734Z,90.90
2019-06-26T22:17:37.005Z,90.70
2019-06-26T22:20:12.345Z,90.30
2019-06-26T22:22:38.788Z,90.20
2019-06-26T22:25:08.665Z,90.20
2019-06-26T22:27:37.727Z,90.00
2019-06-26T22:30:08.023Z,87.70
2019-06-26T22:32:37.407Z,87.90
2019-06-26T22:35:06.987Z,90.00
2019-06-26T22:37:36.346Z,89.90
2019-06-26T22:40:06.216Z,88.20
2019-06-26T22:42:35.384Z,87.60
2019-06-26T22:45:05.283Z,90.00
2019-06-26T22:47:34.472Z,89.20
2019-06-26T22:50:04.887Z,86.50
2019-06-26T22:52:33.911Z,86.00
2019-06-26T22:55:03.145Z,87.60
2019-06-26T22:57:32.278Z,89.10
2019-06-26T23:00:01.521Z,87.30
2019-06-26T23:02:30.618Z,86.80
2019-06-26T23:04:59.745Z,86.10
2019-06-26T23:07:28.771Z,87.50
2019-06-26T23:09:57.904Z,87.50
2019-06-26T23:12:27.355Z,86.50
2019-06-26T23:14:56.647Z,87.10
2019-06-26T23:17:25.983Z,89.00
2019-06-26T23:19:55.034Z,89.90
2019-06-26T23:22:23.996Z,88.60
2019-06-26T23:24:53.215Z,86.90
2019-06-26T23:27:22.239Z,86.30
2019-06-26T23:29:51.212Z,86.30
2019-06-26T23:32:20.250Z,87.50
2019-06-26T23:34:49.373Z,89.30
2019-06-26T23:37:18.341Z,88.10
2019-06-26T23:39:48.039Z,88.40
2019-06-26T23:42:17.060Z,87.90
2019-06-26T23:44:46.211Z,88.40
2019-06-26T23:47:15.169Z,89.90
2019-06-26T23:49:44.176Z,90.10
2019-06-26T23:52:13.454Z,89.30
2019-06-26T23:54:42.462Z,89.90
2019-06-26T23:57:11.781Z,90.20
2019-06-26T23:59:40.822Z,90.70
